Time,TemperatureF,DewpointF,PressureIn,WindDirection,WindDirectionDegrees,WindSpeedMPH,WindSpeedGustMPH,Humidity,HourlyPrecipIn,Conditions,Clouds,dailyrainin,SoftwareType,DateUTC
2016-02-07 00:05:00,41.4,27.7,30.34,NNW,348,0.0,0.0,58,0.00,CLR,,0.00,WeatherDisplay:10.37,2016-02-07 06:05:00,
2016-02-07 00:10:00,41.5,27.4,30.34,NNW,348,0.0,0.0,57,0.00,CLR,,0.00,WeatherDisplay:10.37,2016-02-07 06:10:00,
2016-02-07 00:15:00,41.5,27.8,30.34,NNW,348,0.0,0.0,58,0.00,CLR,,0.00,WeatherDisplay:10.37,2016-02-07 06:15:00,
2016-02-07 00:20:00,41.5,27.4,30.33,NNW,348,0.0,0.0,57,0.00,CLR,,0.00,WeatherDisplay:10.37,2016-02-07 06:20:00,
2016-02-07 00:25:00,41.5,27.8,30.33,NNW,348,0.0,0.0,58,0.00,CLR,,0.00,WeatherDisplay:10.37,2016-02-07 06:25:00,
2016-02-07 00:30:00,41.5,27.8,30.33,NNW,348,0.0,0.0,58,0.00,CLR,,0.00,WeatherDisplay:10.37,2016-02-07 06:30:00,
2016-02-07 00:35:00,41.5,28.2,30.33,NNW,348,0.0,0.0,59,0.00,CLR,,0.00,WeatherDisplay:10.37,2016-02-07 06:35:00,
2016-02-07 00:40:00,41.6,28.3,30.33,NNW,348,0.0,0.0,59,0.00,CLR,,0.00,WeatherDisplay:10.37,2016-02-07 06:40:00,
2016-02-07 00:45:00,41.5,28.2,30.33,NNW,348,0.0,0.0,59,0.00,CLR,,0.00,WeatherDisplay:10.37,2016-02-07 06:45:00,
2016-02-07 00:50:00,41.5,29.0,30.33,NNW,348,0.0,0.0,61,0.00,CLR,,0.00,WeatherDisplay:10.37,2016-02-07 06:50:00,
2016-02-07 00:55:00,41.5,29.0,30.32,NNW,348,0.0,0.0,61,0.00,CLR,,0.00,WeatherDisplay:10.37,2016-02-07 06:55:00,
2016-02-07 01:00:00,41.4,28.5,30.32,NNW,348,0.0,0.0,60,0.00,CLR,,0.00,WeatherDisplay:10.37,2016-02-07 07:00:00,
2016-02-07 01:05:00,41.3,28.9,30.33,NNW,348,0.0,0.0,61,0.00,CLR,,0.00,WeatherDisplay:10.37,2016-02-07 07:05:00,
2016-02-07 01:10:00,41.2,28.4,30.33,NNW,348,0.0,0.0,60,0.00,CLR,,0.00,WeatherDisplay:10.37,2016-02-07 07:10:00,
2016-02-07 01:15:00,41.0,27.8,30.32,NNW,348,0.0,0.0,59,0.00,CLR,,0.00,WeatherDisplay:10.37,2016-02-07 07:15:00,
2016-02-07 01:20:00,40.8,28.8,30.33,NNW,348,0.0,0.0,62,0.00,CLR,,0.00,WeatherDisplay:10.37,2016-02-07 07:20:00,
2016-02-07 01:25:00,40.5,27.3,30.33,NNW,348,0.0,0.0,59,0.00,CLR,,0.00,WeatherDisplay:10.37,2016-02-07 07:25:00,
2016-02-07 01:30:00,40.3,27.5,30.33,NNW,348,0.0,0.0,60,0.00,CLR,,0.00,WeatherDisplay:10.37,2016-02-07 07:30:00,
2016-02-07 01:35:00,39.9,27.5,30.33,NNW,348,0.0,0.0,61,0.00,CLR,,0.00,WeatherDisplay:10.37,2016-02-07 07:35:00,
2016-02-07 01:40:00,39.4,27.1,30.33,NNW,348,0.0,0.0,61,0.00,CLR,,0.00,WeatherDisplay:10.37,2016-02-07 07:40:00,
2016-02-07 01:45:00,39.1,26.4,30.32,NNW,348,0.0,0.0,60,0.00,CLR,,0.00,WeatherDisplay:10.37,2016-02-07 07:45:00,
2016-02-07 01:50:00,38.7,26.4,30.32,NNW,348,0.0,0.0,61,0.00,CLR,,0.00,WeatherDisplay:10.37,2016-02-07 07:50:00,
2016-02-07 01:55:00,38.3,26.8,30.32,NNW,348,0.0,0.0,63,0.00,CLR,,0.00,WeatherDisplay:10.37,2016-02-07 07:55:00,
2016-02-07 02:00:00,37.9,25.6,30.32,NNW,348,0.0,0.0,61,0.00,CLR,,0.00,WeatherDisplay:10.37,2016-02-07 08:00:00,
2016-02-07 02:05:00,37.5,25.3,30.32,NNW,348,0.0,0.0,61,0.00,CLR,,0.00,WeatherDisplay:10.37,2016-02-07 08:05:00,
2016-02-07 02:10:00,37.2,25.0,30.32,NNW,348,0.0,0.0,61,0.00,CLR,,0.00,WeatherDisplay:10.37,2016-02-07 08:10:00,
2016-02-07 02:15:00,36.9,25.5,30.32,NNW,348,0.0,0.0,63,0.00,CLR,,0.00,WeatherDisplay:10.37,2016-02-07 08:15:00,
2016-02-07 02:20:00,36.6,25.6,30.32,NNW,348,0.0,0.0,64,0.00,CLR,,0.00,WeatherDisplay:10.37,2016-02-07 08:20:00,
2016-02-07 02:25:00,36.3,24.9,30.32,NNW,348,0.0,0.0,63,0.00,CLR,,0.00,WeatherDisplay:10.37,2016-02-07 08:25:00,
2016-02-07 02:30:00,36.1,25.5,30.32,NNW,348,0.0,0.0,65,0.00,CLR,,0.00,WeatherDisplay:10.37,2016-02-07 08:30:00,
2016-02-07 02:35:00,35.8,25.2,30.32,NNW,348,0.0,0.0,65,0.00,CLR,,0.00,WeatherDisplay:10.37,2016-02-07 08:35:00,
2016-02-07 02:40:00,35.5,24.9,30.32,NNW,348,0.0,0.0,65,0.00,CLR,,0.00,WeatherDisplay:10.37,2016-02-07 08:40:00,
2016-02-07 02:45:00,35.2,24.2,30.31,NNW,348,0.0,0.0,64,0.00,CLR,,0.00,WeatherDisplay:10.37,2016-02-07 08:45:00,
2016-02-07 02:50:00,34.9,24.3,30.31,NNW,348,0.0,0.0,65,0.00,CLR,,0.00,WeatherDisplay:10.37,2016-02-07 08:50:00,
2016-02-07 02:55:00,34.8,24.6,30.31,NNW,348,0.0,0.0,66,0.00,CLR,,0.00,WeatherDisplay:10.37,2016-02-07 08:55:00,
2016-02-07 03:00:00,34.5,24.3,30.31,NNW,348,0.0,0.0,66,0.00,CLR,,0.00,WeatherDisplay:10.37,2016-02-07 09:00:00,
2016-02-07 03:05:00,34.2,24.0,30.30,NNW,348,0.0,0.0,66,0.00,CLR,,0.00,WeatherDisplay:10.37,2016-02-07 09:05:00,
2016-02-07 03:10:00,33.9,23.7,30.30,NNW,348,0.0,0.0,66,0.00,CLR,,0.00,WeatherDisplay:10.37,2016-02-07 09:10:00,
2016-02-07 03:15:00,33.6,23.8,30.30,NNW,348,0.0,0.0,67,0.00,CLR,,0.00,WeatherDisplay:10.37,2016-02-07 09:15:00,
2016-02-07 03:20:00,33.3,23.5,30.30,NNW,348,0.0,0.0,67,0.00,CLR,,0.00,WeatherDisplay:10.37,2016-02-07 09:20:00,
2016-02-07 03:25:00,33.0,23.2,30.30,NNW,348,0.0,0.0,67,0.00,CLR,,0.00,WeatherDisplay:10.37,2016-02-07 09:25:00,
2016-02-07 03:30:00,32.9,23.5,30.30,NNW,348,0.0,0.0,68,0.00,CLR,,0.00,WeatherDisplay:10.37,2016-02-07 09:30:00,
2016-02-07 03:35:00,32.7,23.3,30.30,NNW,348,0.0,0.0,68,0.00,CLR,,0.00,WeatherDisplay:10.37,2016-02-07 09:35:00,
2016-02-07 03:40:00,32.6,23.2,30.29,NNW,348,0.0,0.0,68,0.00,CLR,,0.00,WeatherDisplay:10.37,2016-02-07 09:40:00,
2016-02-07 03:45:00,32.5,23.8,30.29,NNW,348,2.3,0.0,70,0.00,CLR,,0.00,WeatherDisplay:10.37,2016-02-07 09:45:00,
2016-02-07 03:51:00,32.4,23.7,30.29,NNW,348,0.0,0.0,70,0.00,CLR,,0.00,WeatherDisplay:10.37,2016-02-07 09:51:00,
2016-02-07 03:55:00,32.3,23.6,30.29,NNW,348,3.5,0.0,70,0.00,CLR,,0.00,WeatherDisplay:10.37,2016-02-07 09:55:00,
2016-02-07 04:01:00,32.2,23.5,30.28,NNW,348,0.0,0.0,70,0.00,CLR,,0.00,WeatherDisplay:10.37,2016-02-07 10:01:00,
2016-02-07 04:06:00,32.1,23.4,30.29,NNW,348,0.0,0.0,70,0.00,CLR,,0.00,WeatherDisplay:10.37,2016-02-07 10:06:00,
2016-02-07 04:16:00,32.1,23.4,30.28,NNW,348,0.0,0.0,70,0.00,CLR,,0.00,WeatherDisplay:10.37,2016-02-07 10:16:00,
2016-02-07 04:21:00,32.0,23.3,30.28,NNW,348,0.0,0.0,70,0.00,CLR,,0.00,WeatherDisplay:10.37,2016-02-07 10:21:00,
2016-02-07 04:26:00,32.0,23.3,30.28,NNW,348,0.0,0.0,70,0.00,CLR,,0.00,WeatherDisplay:10.37,2016-02-07 10:26:00,
2016-02-07 04:31:00,31.9,23.2,30.28,NNW,348,0.0,0.0,70,0.00,CLR,,0.00,WeatherDisplay:10.37,2016-02-07 10:31:00,
2016-02-07 04:36:00,31.9,23.6,30.28,NNW,348,0.0,0.0,71,0.00,CLR,,0.00,WeatherDisplay:10.37,2016-02-07 10:36:00,
2016-02-07 04:41:00,31.8,23.5,30.27,NNW,348,0.0,0.0,71,0.00,CLR,,0.00,WeatherDisplay:10.37,2016-02-07 10:41:00,
2016-02-07 04:46:00,31.8,23.5,30.28,NNW,348,0.0,0.0,71,0.00,CLR,,0.00,WeatherDisplay:10.37,2016-02-07 10:46:00,
2016-02-07 04:51:00,31.8,23.8,30.28,NNW,348,0.0,0.0,72,0.00,CLR,,0.00,WeatherDisplay:10.37,2016-02-07 10:51:00,
2016-02-07 04:56:00,31.8,24.1,30.28,NNW,348,0.0,0.0,73,0.00,CLR,,0.00,WeatherDisplay:10.37,2016-02-07 10:56:00,
2016-02-07 05:01:00,31.8,24.5,30.27,NNW,348,0.0,0.0,74,0.00,CLR,,0.00,WeatherDisplay:10.37,2016-02-07 11:01:00,
2016-02-07 05:06:00,31.8,24.5,30.27,NNW,348,0.0,0.0,74,0.00,CLR,,0.00,WeatherDisplay:10.37,2016-02-07 11:06:00,
2016-02-07 05:16:00,31.9,24.6,30.27,NNW,348,0.0,0.0,74,0.00,CLR,,0.00,WeatherDisplay:10.37,2016-02-07 11:16:00,
2016-02-07 05:21:00,31.9,24.2,30.27,NNW,348,2.3,2.3,73,0.00,CLR,,0.00,WeatherDisplay:10.37,2016-02-07 11:21:00,
2016-02-07 05:26:00,31.8,24.5,30.27,NNW,348,0.0,0.0,74,0.00,CLR,,0.00,WeatherDisplay:10.37,2016-02-07 11:26:00,
2016-02-07 05:31:00,31.6,23.9,30.27,NNW,348,0.0,0.0,73,0.00,CLR,,0.00,WeatherDisplay:10.37,2016-02-07 11:31:00,
2016-02-07 05:36:00,31.5,23.8,30.27,NNW,348,0.0,0.0,73,0.00,CLR,,0.00,WeatherDisplay:10.37,2016-02-07 11:36:00,
2016-02-07 05:46:00,31.3,23.6,30.27,NNW,348,0.0,0.0,73,0.00,CLR,,0.00,WeatherDisplay:10.37,2016-02-07 11:46:00,
2016-02-07 05:51:00,31.1,23.5,30.26,NNW,348,0.0,0.0,73,0.00,CLR,,0.00,WeatherDisplay:10.37,2016-02-07 11:51:00,
2016-02-07 05:56:00,31.0,23.4,30.26,NNW,348,0.0,0.0,73,0.00,CLR,,0.00,WeatherDisplay:10.37,2016-02-07 11:56:00,
2016-02-07 06:01:00,31.0,23.4,30.26,NNW,348,0.0,0.0,73,0.00,CLR,,0.00,WeatherDisplay:10.37,2016-02-07 12:01:00,
2016-02-07 06:06:00,30.9,23.6,30.26,NNW,348,3.0,0.0,74,0.00,CLR,,0.00,WeatherDisplay:10.37,2016-02-07 12:06:00,
2016-02-07 06:11:00,30.8,23.5,30.26,NNW,348,3.5,3.5,74,0.00,CLR,,0.00,WeatherDisplay:10.37,2016-02-07 12:11:00,
2016-02-07 06:21:00,30.5,23.2,30.26,NNW,348,0.0,0.0,74,0.00,CLR,,0.00,WeatherDisplay:10.37,2016-02-07 12:21:00,
2016-02-07 06:26:00,30.4,23.1,30.27,NNW,348,0.0,0.0,74,0.00,CLR,,0.00,WeatherDisplay:10.37,2016-02-07 12:26:00,
2016-02-07 06:31:00,30.2,22.9,30.27,NNW,348,3.5,3.5,74,0.00,CLR,,0.00,WeatherDisplay:10.37,2016-02-07 12:31:00,
2016-02-07 06:41:00,29.9,22.9,30.27,NNW,348,3.5,3.5,75,0.00,CLR,,0.00,WeatherDisplay:10.37,2016-02-07 12:41:00,
2016-02-07 06:46:00,29.7,22.7,30.27,NNW,348,3.0,3.0,75,0.00,CLR,,0.00,WeatherDisplay:10.37,2016-02-07 12:46:00,
2016-02-07 06:51:00,29.7,23.1,30.27,NNW,348,3.5,3.5,76,0.00,CLR,,0.00,WeatherDisplay:10.37,2016-02-07 12:51:00,
2016-02-07 07:01:00,29.6,23.3,30.28,NNW,348,4.6,4.6,77,0.00,CLR,,0.00,WeatherDisplay:10.37,2016-02-07 13:01:00,
2016-02-07 07:06:00,29.6,23.3,30.27,NNW,348,0.0,0.0,77,0.00,CLR,,0.00,WeatherDisplay:10.37,2016-02-07 13:06:00,
2016-02-07 07:11:00,29.6,23.3,30.27,NNW,348,0.0,0.0,77,0.00,CLR,,0.00,WeatherDisplay:10.37,2016-02-07 13:11:00,
2016-02-07 07:16:00,29.6,23.3,30.27,NNW,348,0.0,0.0,77,0.00,CLR,,0.00,WeatherDisplay:10.37,2016-02-07 13:16:00,
2016-02-07 07:21:00,29.6,23.0,30.27,NNW,348,0.0,0.0,76,0.00,CLR,,0.00,WeatherDisplay:10.37,2016-02-07 13:21:00,
2016-02-07 07:26:00,29.6,23.3,30.27,NNW,348,0.0,0.0,77,0.00,CLR,,0.00,WeatherDisplay:10.37,2016-02-07 13:26:00,
2016-02-07 07:31:00,29.7,23.4,30.27,NNW,348,0.0,0.0,77,0.00,CLR,,0.00,WeatherDisplay:10.37,2016-02-07 13:31:00,
2016-02-07 07:36:00,29.9,23.9,30.27,NNW,348,0.0,0.0,78,0.00,CLR,,0.00,WeatherDisplay:10.37,2016-02-07 13:36:00,